Time;durP1;ratioP1;P1;durP2;ratioP2;P2;SDS_P1;SDS_P2;PMS_P1;PMS_P2;Temp;Humidity;BMP_temperature;BMP_pressure;BME280_temperature;BME280_humidity;BME280_pressure;Samples;Min_cycle;Max_cycle;Signal;HPM_P1;HPM_P2
2022/09/07 00:00:49;;;;;;;16.00;2.25;;;17.50;99.90;;;;;;5115538;27;20042;-70
2022/09/07 00:03:15;;;;;;;11.73;2.00;;;17.50;99.90;;;;;;5087673;28;20122;-69
2022/09/07 00:05:45;;;;;;;12.27;1.92;;;17.50;99.90;;;;;;5088392;28;20126;-70
2022/09/07 00:08:11;;;;;;;12.52;2.05;;;17.50;99.90;;;;;;5115044;27;20040;-70
2022/09/07 00:10:37;;;;;;;11.70;2.20;;;17.50;99.90;;;;;;5110299;27;20469;-69
2022/09/07 00:13:05;;;;;;;17.50;2.83;;;17.50;99.90;;;;;;5110840;27;20035;-70
2022/09/07 00:15:30;;;;;;;14.52;2.33;;;17.60;99.90;;;;;;5117258;27;20081;-70
2022/09/07 00:17:56;;;;;;;14.13;2.40;;;17.50;99.90;;;;;;5091101;27;20043;-71
2022/09/07 00:20:22;;;;;;;12.75;2.75;;;17.60;99.90;;;;;;5112866;27;20075;-70
2022/09/07 00:22:48;;;;;;;15.70;2.53;;;17.60;99.90;;;;;;5115396;27;20027;-71
2022/09/07 00:25:13;;;;;;;13.48;2.00;;;17.60;99.90;;;;;;5103403;27;20027;-70
2022/09/07 00:27:40;;;;;;;13.57;2.58;;;17.70;99.90;;;;;;5103945;28;20374;-71
2022/09/07 00:30:06;;;;;;;12.10;2.22;;;17.70;99.90;;;;;;5105235;28;20034;-70
2022/09/07 00:32:31;;;;;;;10.38;1.85;;;17.70;99.90;;;;;;5104857;28;20092;-69
2022/09/07 00:34:57;;;;;;;13.95;2.22;;;17.70;99.90;;;;;;5104052;28;20031;-71
2022/09/07 00:37:23;;;;;;;13.98;2.65;;;17.70;99.90;;;;;;5103597;28;20035;-71
2022/09/07 00:39:49;;;;;;;14.73;2.17;;;17.80;99.90;;;;;;5103248;28;20050;-71
2022/09/07 00:42:20;;;;;;;13.02;1.92;;;17.70;99.90;;;;;;5099709;28;20036;-71
2022/09/07 00:45:00;;;;;;;13.77;1.95;;;17.70;99.90;;;;;;5101297;28;20111;-69
2022/09/07 00:47:47;;;;;;;16.00;2.53;;;17.70;99.90;;;;;;5105135;28;20463;-69
2022/09/07 00:50:25;;;;;;;18.10;3.28;;;17.70;99.90;;;;;;5100354;27;20035;-70
2022/09/07 00:53:08;;;;;;;15.25;2.40;;;17.70;99.90;;;;;;5107603;27;20050;-71
2022/09/07 00:55:36;;;;;;;19.40;3.42;;;17.70;99.90;;;;;;5109582;27;20040;-70
2022/09/07 00:58:03;;;;;;;12.55;2.30;;;17.70;99.90;;;;;;5104114;28;20065;-71
2022/09/07 01:00:30;;;;;;;18.27;2.50;;;17.80;99.90;;;;;;5105887;27;20526;-69
2022/09/07 01:02:57;;;;;;;14.60;2.40;;;17.80;99.90;;;;;;5103656;28;20245;-70
2022/09/07 01:05:23;;;;;;;14.07;2.72;;;17.80;99.90;;;;;;5105544;27;20402;-70
2022/09/07 01:07:49;;;;;;;23.05;3.15;;;17.80;99.90;;;;;;5089757;28;20065;-69
2022/09/07 01:10:15;;;;;;;16.27;2.78;;;17.80;99.90;;;;;;5108637;28;20061;-70
2022/09/07 01:12:41;;;;;;;13.70;2.72;;;17.80;99.90;;;;;;5093008;27;20033;-70
2022/09/07 01:15:07;;;;;;;17.15;2.60;;;17.80;99.90;;;;;;5093021;28;20089;-71
2022/09/07 01:18:14;;;;;;;14.27;2.50;;;17.80;99.90;;;;;;5101100;28;20078;-70
2022/09/07 01:21:11;;;;;;;15.25;3.08;;;17.80;99.90;;;;;;5092012;28;20420;-71
2022/09/07 01:23:57;;;;;;;17.33;3.35;;;17.80;99.90;;;;;;5122493;27;20040;-69
2022/09/07 01:26:40;;;;;;;14.00;2.38;;;17.80;99.90;;;;;;5081739;28;20122;-70
2022/09/07 01:29:27;;;;;;;14.73;2.50;;;17.80;99.90;;;;;;5109338;27;20142;-70
2022/09/07 01:32:13;;;;;;;16.55;2.33;;;17.90;99.90;;;;;;5093270;28;20101;-70
2022/09/07 01:34:45;;;;;;;13.73;3.17;;;17.90;99.90;;;;;;5096080;27;20027;-71
2022/09/07 01:37:23;;;;;;;15.93;2.83;;;17.90;99.90;;;;;;5114915;27;20062;-69
2022/09/07 01:40:31;;;;;;;19.55;3.13;;;17.90;99.90;;;;;;5096526;27;20138;-69
2022/09/07 01:43:05;;;;;;;14.40;2.80;;;17.90;99.90;;;;;;5022699;28;20415;-69
2022/09/07 01:45:34;;;;;;;17.10;2.95;;;17.90;99.90;;;;;;5014936;28;20042;-69
2022/09/07 01:48:05;;;;;;;13.50;2.50;;;17.90;99.90;;;;;;5026228;28;20037;-70
2022/09/07 01:50:46;;;;;;;16.90;3.05;;;18.00;99.90;;;;;;5022863;28;20029;-70
2022/09/07 01:53:55;;;;;;;17.73;2.85;;;18.00;99.90;;;;;;5028662;28;20079;-70
2022/09/07 01:56:30;;;;;;;16.73;2.97;;;18.00;99.90;;;;;;5006764;28;20041;-70
2022/09/07 01:59:02;;;;;;;15.50;2.83;;;18.00;99.90;;;;;;5026328;28;20133;-70
2022/09/07 02:01:33;;;;;;;19.13;3.33;;;18.00;99.90;;;;;;5007680;28;20578;-71
2022/09/07 02:04:13;;;;;;;18.95;2.80;;;18.00;99.90;;;;;;5026251;28;20503;-69
2022/09/07 02:06:58;;;;;;;20.00;3.25;;;18.00;99.90;;;;;;5026102;28;20061;-70
2022/09/07 02:09:26;;;;;;;18.90;3.08;;;18.00;99.90;;;;;;5024297;28;20121;-70
2022/09/07 02:11:53;;;;;;;18.17;3.20;;;18.00;99.90;;;;;;5026301;28;20152;-70
2022/09/07 02:14:31;;;;;;;15.63;2.70;;;17.90;99.90;;;;;;5027328;28;20065;-69
2022/09/07 02:17:07;;;;;;;21.20;3.28;;;17.90;99.90;;;;;;5070811;27;20096;-70
2022/09/07 02:19:50;;;;;;;18.60;2.70;;;17.90;99.90;;;;;;5113091;28;20096;-69
2022/09/07 02:22:20;;;;;;;18.65;3.92;;;17.90;99.90;;;;;;5104212;28;20038;-69
2022/09/07 02:24:52;;;;;;;22.67;3.92;;;17.90;99.90;;;;;;5091938;28;20032;-70
2022/09/07 02:27:44;;;;;;;18.98;3.45;;;17.90;99.90;;;;;;5089868;28;20054;-71
2022/09/07 02:30:11;;;;;;;17.33;3.05;;;17.90;99.90;;;;;;5106596;27;20170;-71
2022/09/07 02:32:36;;;;;;;19.25;3.30;;;18.00;99.90;;;;;;5106069;27;20032;-69
2022/09/07 02:35:03;;;;;;;19.48;3.40;;;18.00;99.90;;;;;;5107558;28;20047;-71
2022/09/07 02:37:29;;;;;;;21.52;2.95;;;18.00;99.90;;;;;;5088070;28;20084;-69
2022/09/07 02:39:55;;;;;;;20.48;3.42;;;18.00;99.90;;;;;;5103045;27;20519;-70
2022/09/07 02:42:21;;;;;;;20.80;3.30;;;18.00;99.90;;;;;;5109142;27;20031;-70
2022/09/07 02:44:47;;;;;;;16.98;3.38;;;18.00;99.90;;;;;;5113292;27;20031;-70
2022/09/07 02:47:45;;;;;;;17.55;2.95;;;18.00;99.90;;;;;;5112880;27;21777;-71
2022/09/07 02:50:46;;;;;;;15.43;3.22;;;18.00;99.90;;;;;;5106025;28;20031;-70
2022/09/07 02:53:33;;;;;;;17.48;2.80;;;18.00;99.90;;;;;;5101196;27;20016;-70
2022/09/07 02:56:31;;;;;;;18.20;3.20;;;18.00;99.90;;;;;;5107803;27;20039;-70
2022/09/07 02:59:21;;;;;;;19.38;3.70;;;18.00;99.90;;;;;;5064836;28;20043;-70
2022/09/07 03:01:52;;;;;;;17.02;2.85;;;18.00;99.90;;;;;;5104796;27;20028;-69
2022/09/07 03:04:55;;;;;;;19.33;3.20;;;18.00;99.90;;;;;;5104927;27;20133;-71
2022/09/07 03:07:41;;;;;;;20.63;3.47;;;18.00;99.90;;;;;;5107590;27;20057;-71
2022/09/07 03:10:07;;;;;;;22.25;3.63;;;18.00;99.90;;;;;;5102125;28;20039;-70
2022/09/07 03:12:46;;;;;;;21.00;3.58;;;18.00;99.90;;;;;;5108382;27;20054;-70
2022/09/07 03:15:13;;;;;;;18.90;3.25;;;18.00;99.90;;;;;;5106484;28;20028;-71
2022/09/07 03:17:40;;;;;;;20.35;3.45;;;18.00;99.90;;;;;;5107447;27;20036;-70
2022/09/07 03:20:07;;;;;;;16.45;3.10;;;18.00;99.90;;;;;;5107575;27;20058;-70
2022/09/07 03:22:33;;;;;;;17.77;3.25;;;18.00;99.90;;;;;;5118122;27;20039;-69
2022/09/07 03:24:59;;;;;;;16.83;3.35;;;18.00;99.90;;;;;;5103582;28;20024;-70
2022/09/07 03:27:25;;;;;;;16.25;2.92;;;18.00;99.90;;;;;;5108410;27;20085;-70
2022/09/07 03:29:51;;;;;;;14.95;2.88;;;18.00;99.90;;;;;;5105008;28;20524;-70
2022/09/07 03:32:16;;;;;;;23.77;3.83;;;17.90;99.90;;;;;;5094713;27;20027;-70
2022/09/07 03:34:42;;;;;;;17.75;2.95;;;17.90;99.90;;;;;;5111576;27;20027;-72
2022/09/07 03:37:08;;;;;;;16.42;3.45;;;17.90;99.90;;;;;;5104525;27;20032;-70
2022/09/07 03:39:35;;;;;;;19.02;3.55;;;17.90;99.90;;;;;;5091764;28;20035;-69
2022/09/07 03:42:00;;;;;;;22.58;3.45;;;18.00;99.90;;;;;;5108762;27;20100;-70
2022/09/07 03:44:26;;;;;;;11.95;2.40;;;18.00;99.90;;;;;;5114658;27;20051;-71
2022/09/07 03:46:52;;;;;;;9.25;1.58;;;17.90;99.90;;;;;;5092105;27;20031;-71
2022/09/07 03:49:17;;;;;;;10.27;1.83;;;17.70;99.90;;;;;;5105948;28;20505;-70
2022/09/07 03:51:43;;;;;;;11.07;1.60;;;17.40;99.90;;;;;;5107426;27;20023;-70
2022/09/07 03:54:09;;;;;;;10.23;2.38;;;17.10;99.90;;;;;;5104919;28;20038;-69
2022/09/07 03:56:34;;;;;;;12.45;2.42;;;16.70;99.90;;;;;;5105900;27;20055;-69
2022/09/07 03:59:00;;;;;;;14.70;2.45;;;16.40;99.90;;;;;;5109438;28;20122;-70
2022/09/07 04:01:26;;;;;;;14.32;2.22;;;16.20;99.90;;;;;;5104674;28;20115;-71
2022/09/07 04:03:55;;;;;;;14.35;2.10;;;16.10;99.90;;;;;;5114440;27;20110;-69
2022/09/07 04:06:21;;;;;;;9.37;1.90;;;16.00;99.90;;;;;;5089594;28;20027;-70
2022/09/07 04:08:46;;;;;;;15.38;2.13;;;15.90;99.90;;;;;;5108946;27;20282;-69
2022/09/07 04:11:15;;;;;;;14.38;2.05;;;15.80;99.90;;;;;;5104222;28;20119;-70
2022/09/07 04:13:41;;;;;;;15.02;2.30;;;15.80;99.90;;;;;;5102179;28;20054;-69
2022/09/07 04:16:13;;;;;;;16.85;2.50;;;15.80;99.90;;;;;;5105817;27;20123;-70
2022/09/07 04:18:39;;;;;;;14.63;2.38;;;15.80;99.90;;;;;;5102942;28;20784;-70
2022/09/07 04:21:05;;;;;;;20.65;2.33;;;15.80;99.90;;;;;;5104819;27;20031;-70
2022/09/07 04:23:31;;;;;;;15.25;2.05;;;15.70;99.90;;;;;;5087401;28;20401;-70
2022/09/07 04:25:56;;;;;;;17.90;2.47;;;15.70;99.90;;;;;;5088147;28;20052;-70
2022/09/07 04:28:22;;;;;;;17.67;2.50;;;15.70;99.90;;;;;;5089939;28;20142;-70
2022/09/07 04:30:48;;;;;;;16.17;2.53;;;15.70;99.90;;;;;;5089279;28;20405;-70
2022/09/07 04:33:14;;;;;;;21.75;3.00;;;15.70;99.90;;;;;;5105589;27;20031;-70
2022/09/07 04:35:41;;;;;;;21.88;2.90;;;15.80;99.90;;;;;;5091903;27;20217;-70
2022/09/07 04:38:11;;;;;;;15.57;2.53;;;15.80;99.90;;;;;;5098792;28;20481;-69
2022/09/07 04:40:36;;;;;;;23.75;3.05;;;15.80;99.90;;;;;;5085811;28;20496;-70
2022/09/07 04:43:04;;;;;;;26.80;3.40;;;15.80;99.90;;;;;;5096139;27;20090;-70
2022/09/07 04:45:30;;;;;;;23.08;4.03;;;15.90;99.90;;;;;;5093315;27;20140;-69
2022/09/07 04:47:56;;;;;;;22.92;3.10;;;15.90;99.90;;;;;;5113317;27;20102;-69
2022/09/07 04:50:23;;;;;;;17.08;3.42;;;15.90;99.90;;;;;;5118209;27;20056;-69
2022/09/07 04:52:48;;;;;;;25.63;3.65;;;15.90;99.90;;;;;;5113214;27;20031;-70
2022/09/07 04:55:15;;;;;;;28.17;4.22;;;16.00;99.90;;;;;;5100379;27;20405;-70
2022/09/07 04:57:41;;;;;;;24.48;4.03;;;15.90;99.90;;;;;;5107137;27;20030;-70
2022/09/07 05:00:07;;;;;;;19.25;3.22;;;15.90;99.90;;;;;;5104460;27;20036;-70
2022/09/07 05:02:33;;;;;;;26.70;4.22;;;15.90;99.90;;;;;;5105802;27;20039;-70
2022/09/07 05:04:59;;;;;;;23.48;4.03;;;15.90;99.90;;;;;;5105634;28;20027;-70
2022/09/07 05:07:25;;;;;;;19.63;3.92;;;15.90;99.90;;;;;;5118246;27;20031;-70
2022/09/07 05:09:50;;;;;;;22.58;3.20;;;15.90;99.90;;;;;;5103757;28;20035;-71
2022/09/07 05:12:16;;;;;;;22.27;3.70;;;15.90;99.90;;;;;;5089770;28;20035;-70
2022/09/07 05:14:42;;;;;;;18.45;3.45;;;15.90;99.90;;;;;;5102293;28;20115;-69
2022/09/07 05:17:07;;;;;;;25.38;3.70;;;15.80;99.90;;;;;;5103049;28;20062;-69
2022/09/07 05:19:33;;;;;;;20.38;3.42;;;15.80;99.90;;;;;;5089594;28;20046;-71
2022/09/07 05:21:59;;;;;;;18.40;2.55;;;15.80;99.90;;;;;;5114070;28;20088;-70
2022/09/07 05:24:27;;;;;;;28.17;4.22;;;15.80;99.90;;;;;;5116846;28;20381;-70
2022/09/07 05:26:53;;;;;;;26.85;4.18;;;15.80;99.90;;;;;;5120750;28;20031;-70
2022/09/07 05:29:19;;;;;;;28.00;4.72;;;15.80;99.90;;;;;;5107112;28;20035;-70
2022/09/07 05:31:45;;;;;;;22.13;3.50;;;15.80;99.90;;;;;;5106361;28;20032;-70
2022/09/07 05:34:11;;;;;;;28.20;4.47;;;15.80;99.90;;;;;;5112295;28;20035;-70
2022/09/07 05:36:37;;;;;;;26.33;4.22;;;15.80;99.90;;;;;;5082417;28;20035;-69
2022/09/07 05:39:04;;;;;;;24.08;4.13;;;15.80;99.90;;;;;;5108582;28;20666;-70
2022/09/07 05:41:30;;;;;;;27.02;4.68;;;15.80;99.90;;;;;;5085141;28;20123;-69
2022/09/07 05:43:56;;;;;;;27.70;4.40;;;15.80;99.90;;;;;;5087707;28;20138;-69
2022/09/07 05:46:22;;;;;;;27.65;4.25;;;15.80;99.90;;;;;;5088253;28;20039;-70
2022/09/07 05:48:48;;;;;;;22.17;3.85;;;15.80;99.90;;;;;;5104010;28;20022;-70
2022/09/07 05:51:15;;;;;;;24.63;4.22;;;15.80;99.90;;;;;;5101259;28;20027;-70
2022/09/07 05:53:43;;;;;;;26.27;4.53;;;15.80;99.90;;;;;;5089592;28;20032;-70
2022/09/07 05:56:09;;;;;;;21.02;3.70;;;15.80;99.90;;;;;;5100608;28;20036;-70
2022/09/07 05:58:35;;;;;;;22.63;3.80;;;15.80;99.90;;;;;;5109465;27;20045;-69
2022/09/07 06:01:10;;;;;;;22.23;4.03;;;15.70;99.90;;;;;;5101281;27;20080;-70
2022/09/07 06:03:37;;;;;;;23.20;3.72;;;15.60;99.90;;;;;;5081663;27;20032;-69
2022/09/07 06:06:07;;;;;;;19.00;3.50;;;15.50;99.90;;;;;;5118529;27;20046;-69
2022/09/07 06:08:34;;;;;;;;;;;15.50;99.90;;;;;;5110804;27;20043;-69
2022/09/07 06:11:11;;;;;;;18.92;3.88;;;15.50;99.90;;;;;;5090892;27;19963;-71
2022/09/07 06:13:37;;;;;;;17.25;3.08;;;15.50;99.90;;;;;;5103273;27;20482;-69
2022/09/07 06:16:04;;;;;;;20.85;3.35;;;15.60;99.90;;;;;;5107041;27;20023;-70
2022/09/07 06:18:31;;;;;;;25.92;4.40;;;15.70;99.90;;;;;;5108061;27;20047;-68
2022/09/07 06:21:10;;;;;;;21.33;4.05;;;15.70;99.90;;;;;;5108674;27;20031;-69
2022/09/07 06:23:38;;;;;;;22.13;4.10;;;15.70;99.90;;;;;;5113616;27;20037;-69
2022/09/07 06:26:04;;;;;;;21.73;3.75;;;15.80;99.90;;;;;;5086540;27;21124;-68
2022/09/07 06:28:31;;;;;;;25.92;4.18;;;15.90;99.90;;;;;;5111487;27;20428;-69
2022/09/07 06:31:01;;;;;;;22.08;3.88;;;16.00;99.90;;;;;;5102118;27;20165;-68
2022/09/07 06:33:27;;;;;;;20.98;4.55;;;16.10;99.90;;;;;;5103701;27;20489;-69
2022/09/07 06:35:59;;;;;;;27.50;4.78;;;16.30;99.90;;;;;;5109512;28;20036;-68
2022/09/07 06:38:29;;;;;;;20.15;3.75;;;16.50;99.90;;;;;;5097319;28;20036;-69
2022/09/07 06:41:03;;;;;;;29.13;4.97;;;16.70;99.90;;;;;;5106844;28;20033;-69
2022/09/07 06:43:29;;;;;;;26.52;4.18;;;16.90;99.90;;;;;;5108193;28;20051;-69
2022/09/07 06:45:55;;;;;;;23.23;4.22;;;17.00;99.90;;;;;;5107538;28;20789;-69
2022/09/07 06:48:21;;;;;;;21.60;5.03;;;17.10;99.90;;;;;;5115109;27;20047;-68
2022/09/07 06:50:57;;;;;;;26.75;4.68;;;17.20;99.90;;;;;;5092489;28;20068;-69
2022/09/07 06:53:24;;;;;;;21.70;3.70;;;17.30;99.90;;;;;;5108038;27;20121;-70
2022/09/07 06:55:50;;;;;;;20.75;3.53;;;17.30;99.90;;;;;;5105746;27;20028;-69
2022/09/07 06:58:15;;;;;;;25.05;4.32;;;17.40;99.90;;;;;;5104926;27;20041;-70
2022/09/07 07:00:41;;;;;;;16.80;3.72;;;17.40;99.90;;;;;;5104720;28;20050;-70
2022/09/07 07:03:07;;;;;;;24.23;3.60;;;17.50;99.90;;;;;;5111349;27;20465;-70
2022/09/07 07:05:32;;;;;;;15.88;2.85;;;17.60;99.90;;;;;;5112221;27;20039;-69
2022/09/07 07:07:58;;;;;;;21.08;3.25;;;17.70;99.90;;;;;;5093132;28;20038;-70
2022/09/07 07:10:24;;;;;;;20.35;3.33;;;17.80;99.90;;;;;;5112042;27;20101;-69
2022/09/07 07:12:51;;;;;;;21.52;3.55;;;17.90;99.90;;;;;;5112969;27;20035;-69
2022/09/07 07:15:17;;;;;;;21.25;3.60;;;18.00;99.90;;;;;;5111415;27;20027;-69
2022/09/07 07:17:43;;;;;;;17.88;3.58;;;18.10;99.90;;;;;;5100316;27;20027;-69
2022/09/07 07:20:09;;;;;;;16.33;3.13;;;18.20;99.90;;;;;;5112621;27;20084;-69
2022/09/07 07:22:34;;;;;;;14.25;3.00;;;18.20;99.90;;;;;;5102177;28;20493;-70
2022/09/07 07:25:00;;;;;;;21.00;3.78;;;18.10;99.90;;;;;;5091210;28;20027;-70
2022/09/07 07:27:28;;;;;;;19.30;3.25;;;18.10;99.90;;;;;;5085864;28;20024;-70
2022/09/07 07:29:54;;;;;;;21.38;3.45;;;18.00;99.90;;;;;;5080460;28;20058;-71
2022/09/07 07:32:19;;;;;;;19.98;3.95;;;17.90;99.90;;;;;;5101106;28;20477;-70
2022/09/07 07:34:45;;;;;;;24.50;3.65;;;17.80;99.90;;;;;;5090180;28;20036;-70
2022/09/07 07:37:10;;;;;;;23.58;3.58;;;17.80;99.90;;;;;;5099875;28;20070;-70
2022/09/07 07:39:36;;;;;;;16.50;2.72;;;17.70;99.90;;;;;;5091195;28;20047;-70
2022/09/07 07:42:02;;;;;;;15.55;2.50;;;17.70;99.90;;;;;;5109983;28;20035;-70
2022/09/07 07:44:27;;;;;;;17.95;3.28;;;17.80;99.90;;;;;;5109834;28;20047;-71
2022/09/07 07:46:53;;;;;;;16.73;2.97;;;17.90;99.90;;;;;;5091448;28;20031;-71
2022/09/07 07:49:20;;;;;;;19.80;3.47;;;18.10;99.90;;;;;;5093959;28;20492;-72
2022/09/07 07:51:46;;;;;;;17.60;2.83;;;18.20;99.90;;;;;;5089297;28;20043;-70
2022/09/07 07:54:11;;;;;;;17.83;3.47;;;18.20;99.90;;;;;;5093152;28;20492;-72
2022/09/07 07:56:37;;;;;;;21.30;3.30;;;18.10;99.90;;;;;;5109723;28;20118;-70
2022/09/07 07:59:02;;;;;;;20.35;2.92;;;18.10;99.90;;;;;;5090817;28;20065;-70
2022/09/07 08:01:28;;;;;;;19.40;3.65;;;18.10;99.90;;;;;;5109188;28;20042;-72
2022/09/07 08:03:54;;;;;;;19.33;3.50;;;18.20;99.90;;;;;;5091079;28;20034;-71
2022/09/07 08:06:20;;;;;;;17.15;3.25;;;18.20;99.90;;;;;;5091166;28;20067;-70
2022/09/07 08:08:47;;;;;;;22.65;3.90;;;18.20;99.90;;;;;;5109377;28;20028;-71
2022/09/07 08:11:18;;;;;;;21.45;3.42;;;18.40;99.90;;;;;;5090891;28;20030;-71
2022/09/07 08:13:46;;;;;;;16.02;3.65;;;18.60;99.90;;;;;;5090817;28;20046;-71
2022/09/07 08:16:12;;;;;;;18.25;3.00;;;18.70;99.90;;;;;;5090689;28;20477;-71
2022/09/07 08:18:39;;;;;;;16.02;3.08;;;18.80;99.90;;;;;;5109008;28;20055;-71
2022/09/07 08:21:07;;;;;;;22.60;3.75;;;18.90;99.90;;;;;;5108609;28;20114;-71
2022/09/07 08:23:33;;;;;;;19.92;3.70;;;18.80;99.90;;;;;;5109130;28;20031;-69
2022/09/07 08:25:59;;;;;;;17.70;3.95;;;18.80;99.90;;;;;;5104165;28;20562;-71
2022/09/07 08:28:27;;;;;;;23.48;3.45;;;18.80;99.90;;;;;;5087306;27;20044;-69
2022/09/07 08:30:53;;;;;;;19.33;3.20;;;18.90;99.90;;;;;;5090082;28;20042;-70
2022/09/07 08:33:19;;;;;;;20.80;3.33;;;19.00;99.90;;;;;;5094743;28;20024;-70
2022/09/07 08:36:01;;;;;;;17.33;3.60;;;19.20;99.90;;;;;;5106032;28;20042;-71
2022/09/07 08:38:31;;;;;;;21.15;3.53;;;19.30;99.90;;;;;;5102545;28;20036;-70
2022/09/07 08:40:58;;;;;;;15.93;2.83;;;19.40;99.90;;;;;;5088501;28;20056;-69
2022/09/07 08:43:36;;;;;;;14.98;3.70;;;19.50;99.90;;;;;;5069906;28;20060;-69
2022/09/07 08:46:11;;;;;;;18.13;3.45;;;19.50;99.90;;;;;;5090765;28;20044;-70
2022/09/07 08:48:37;;;;;;;18.25;4.15;;;19.50;99.90;;;;;;5108799;28;20027;-71
2022/09/07 08:51:11;;;;;;;18.45;3.58;;;19.60;99.90;;;;;;5089533;28;20035;-69
2022/09/07 08:53:44;;;;;;;17.75;2.92;;;19.80;99.90;;;;;;5109072;28;20020;-70
2022/09/07 08:56:33;;;;;;;18.27;2.47;;;19.90;99.90;;;;;;5090323;28;20126;-70
2022/09/07 08:59:01;;;;;;;13.82;3.00;;;19.90;99.90;;;;;;5107734;28;20040;-72
2022/09/07 09:01:34;;;;;;;19.10;3.30;;;19.80;99.90;;;;;;5108218;28;20035;-72
2022/09/07 09:04:00;;;;;;;20.05;3.30;;;19.90;99.90;;;;;;5100679;28;20049;-70
2022/09/07 09:06:29;;;;;;;16.05;2.83;;;19.90;99.90;;;;;;5085444;28;20108;-72
2022/09/07 09:09:20;;;;;;;18.50;3.22;;;19.70;99.90;;;;;;5100343;28;20043;-70
2022/09/07 09:12:08;;;;;;;20.75;3.58;;;19.60;99.90;;;;;;5098200;28;20031;-69
2022/09/07 09:14:52;;;;;;;17.90;3.63;;;19.70;99.90;;;;;;5100939;28;20068;-70
2022/09/07 09:17:29;;;;;;;17.20;3.47;;;19.80;99.90;;;;;;5102250;28;20023;-69
2022/09/07 09:20:13;;;;;;;15.10;3.42;;;19.80;99.90;;;;;;5100920;28;20028;-69
2022/09/07 09:22:39;;;;;;;18.00;3.55;;;19.80;99.90;;;;;;5107682;28;20111;-70
2022/09/07 09:25:25;;;;;;;21.00;3.92;;;19.80;99.90;;;;;;5089797;28;20118;-69
2022/09/07 09:27:51;;;;;;;19.73;3.58;;;19.80;99.90;;;;;;5089759;28;20044;-69
2022/09/07 09:30:19;;;;;;;15.70;3.28;;;19.80;99.90;;;;;;5108558;28;20041;-68
2022/09/07 09:32:47;;;;;;;15.82;3.28;;;19.90;99.90;;;;;;5100131;28;20020;-71
2022/09/07 09:35:22;;;;;;;13.80;2.92;;;20.00;99.90;;;;;;5100594;28;20034;-70
2022/09/07 09:37:47;;;;;;;15.80;3.42;;;20.00;99.90;;;;;;5091732;28;20031;-71
2022/09/07 09:40:18;;;;;;;19.05;3.20;;;20.10;99.90;;;;;;5089116;28;20040;-70
2022/09/07 09:42:45;;;;;;;18.88;3.75;;;20.20;99.90;;;;;;5092900;28;20070;-72
2022/09/07 09:45:20;;;;;;;18.23;2.85;;;20.30;99.90;;;;;;5093027;28;20118;-72
2022/09/07 09:47:50;;;;;;;16.58;3.20;;;20.40;99.90;;;;;;5091811;28;20126;-71
2022/09/07 09:50:38;;;;;;;11.85;2.60;;;20.40;99.90;;;;;;5073014;28;20436;-71
2022/09/07 09:53:04;;;;;;;16.80;3.10;;;20.60;99.90;;;;;;5073373;28;20246;-73
2022/09/07 09:55:36;;;;;;;19.90;3.28;;;20.80;99.90;;;;;;5091689;28;20089;-72
2022/09/07 09:58:23;;;;;;;20.38;3.50;;;20.90;99.90;;;;;;5102473;27;20028;-71
2022/09/07 10:00:57;;;;;;;18.80;3.15;;;20.80;99.90;;;;;;5111888;28;20062;-70
2022/09/07 10:03:25;;;;;;;16.88;3.08;;;20.70;99.90;;;;;;5093212;28;20073;-73
2022/09/07 10:05:51;;;;;;;15.45;2.75;;;20.80;99.90;;;;;;5111846;28;20138;-72
2022/09/07 10:08:30;;;;;;;13.15;2.50;;;20.60;99.90;;;;;;5092410;28;20110;-72
2022/09/07 10:11:01;;;;;;;13.15;2.60;;;20.50;99.90;;;;;;5072511;28;20024;-73
2022/09/07 10:13:30;;;;;;;13.57;3.35;;;20.40;99.90;;;;;;5091193;28;20031;-71
2022/09/07 10:16:02;;;;;;;17.70;2.70;;;20.40;99.90;;;;;;5109091;28;20037;-72
2022/09/07 10:18:39;;;;;;;12.60;3.00;;;20.40;99.90;;;;;;5092564;28;20046;-73
2022/09/07 10:21:22;;;;;;;15.57;3.20;;;20.60;99.90;;;;;;5090940;28;20040;-72
2022/09/07 10:24:12;;;;;;;18.92;3.15;;;20.70;99.90;;;;;;5072741;28;20028;-72
2022/09/07 10:26:39;;;;;;;18.00;3.80;;;20.50;99.90;;;;;;5090058;28;20048;-71
2022/09/07 10:29:15;;;;;;;17.00;3.92;;;20.20;99.90;;;;;;5089394;28;20024;-71
2022/09/07 10:31:59;;;;;;;20.42;3.40;;;20.00;99.90;;;;;;5111244;28;20040;-72
2022/09/07 10:34:33;;;;;;;21.55;3.10;;;19.80;99.90;;;;;;5111164;28;20057;-72
2022/09/07 10:37:07;;;;;;;19.40;3.15;;;19.90;99.90;;;;;;5092880;28;20039;-71
2022/09/07 10:40:21;;;;;;;18.60;3.10;;;19.90;99.90;;;;;;5092633;28;20036;-71
2022/09/07 10:42:57;;;;;;;20.58;3.50;;;20.10;99.90;;;;;;5049635;28;20060;-71
2022/09/07 10:45:38;;;;;;;15.30;3.00;;;20.30;99.90;;;;;;5047516;28;20441;-72
2022/09/07 10:48:30;;;;;;;19.40;3.47;;;20.40;99.90;;;;;;5047602;28;20045;-71
2022/09/07 10:50:58;;;;;;;21.20;3.70;;;20.60;99.90;;;;;;5034124;28;20036;-74
2022/09/07 10:53:36;;;;;;;20.05;3.10;;;20.60;99.90;;;;;;5036634;28;20053;-71
2022/09/07 10:56:13;;;;;;;15.77;3.03;;;20.40;99.90;;;;;;5047132;28;20037;-73
2022/09/07 10:58:55;;;;;;;12.85;2.50;;;19.90;99.90;;;;;;5047210;28;20049;-71
2022/09/07 11:01:31;;;;;;;19.15;4.00;;;19.60;99.90;;;;;;5047250;28;20083;-70
2022/09/07 11:04:31;;;;;;;20.75;3.72;;;19.40;99.90;;;;;;5046133;28;20068;-71
2022/09/07 11:07:04;;;;;;;;;;;19.50;99.90;;;;;;5047424;28;20055;-71
2022/09/07 11:09:39;;;;;;;14.52;2.78;;;19.70;99.90;;;;;;5047109;28;20766;-72
2022/09/07 11:12:15;;;;;;;20.55;3.85;;;19.70;99.90;;;;;;5054487;28;20122;-71
2022/09/07 11:14:48;;;;;;;15.77;2.85;;;19.90;99.90;;;;;;5047124;28;20506;-71
2022/09/07 11:17:27;;;;;;;12.38;1.88;;;20.30;99.90;;;;;;5047239;28;20091;-72
2022/09/07 11:20:30;;;;;;;11.48;2.15;;;20.40;99.90;;;;;;5110372;28;20046;-71
2022/09/07 11:23:17;;;;;;;11.82;1.90;;;20.30;99.90;;;;;;5091765;28;20031;-72
2022/09/07 11:25:52;;;;;;;13.82;2.58;;;20.20;99.90;;;;;;5110594;28;20050;-71
2022/09/07 11:28:34;;;;;;;11.70;2.20;;;20.20;99.90;;;;;;5109950;28;20046;-70
2022/09/07 11:31:15;;;;;;;13.10;2.33;;;20.20;99.90;;;;;;5091884;28;20036;-71
2022/09/07 11:33:57;;;;;;;16.08;3.03;;;20.30;99.90;;;;;;5110206;28;20031;-71
2022/09/07 11:36:25;;;;;;;12.63;2.67;;;20.20;99.90;;;;;;5110197;28;20028;-70
2022/09/07 11:38:59;;;;;;;14.02;2.65;;;20.20;99.90;;;;;;5109321;28;20431;-71
2022/09/07 11:41:31;;;;;;;15.68;2.55;;;20.10;99.90;;;;;;5077896;28;20032;-70
2022/09/07 11:43:59;;;;;;;14.38;2.88;;;20.20;99.90;;;;;;5108428;28;20078;-73
2022/09/07 11:46:44;;;;;;;15.35;2.30;;;20.30;99.90;;;;;;5077461;28;20069;-71
2022/09/07 11:49:27;;;;;;;14.88;2.88;;;20.30;99.90;;;;;;5099804;28;20031;-70
2022/09/07 11:51:59;;;;;;;14.73;2.40;;;20.60;99.90;;;;;;5071832;28;20032;-70
2022/09/07 11:54:52;;;;;;;14.38;2.15;;;20.90;99.90;;;;;;5106268;28;20506;-70
2022/09/07 11:57:33;;;;;;;13.35;2.35;;;20.90;99.90;;;;;;5103702;28;20031;-72
2022/09/07 12:00:10;;;;;;;12.77;2.20;;;20.80;99.90;;;;;;5101281;28;20115;-72
2022/09/07 12:03:06;;;;;;;14.85;2.40;;;20.90;99.90;;;;;;5103376;28;20032;-72
2022/09/07 12:05:35;;;;;;;12.20;2.10;;;20.80;99.90;;;;;;5098823;28;20028;-71
2022/09/07 12:08:19;;;;;;;10.57;2.03;;;21.00;99.90;;;;;;5104188;28;20045;-72
2022/09/07 12:11:02;;;;;;;15.00;2.45;;;21.00;99.90;;;;;;5079107;28;20070;-72
2022/09/07 12:14:06;;;;;;;12.82;2.83;;;21.10;99.90;;;;;;5082479;28;20046;-73
2022/09/07 12:16:46;;;;;;;15.57;3.00;;;21.10;99.90;;;;;;5042381;28;20136;-70
2022/09/07 12:19:15;;;;;;;13.82;2.90;;;20.80;99.90;;;;;;5030565;28;20114;-71
2022/09/07 12:21:45;;;;;;;14.57;2.22;;;20.60;99.90;;;;;;5025443;28;20685;-70
2022/09/07 12:24:36;;;;;;;16.85;2.60;;;20.50;99.90;;;;;;5041616;28;20048;-71
2022/09/07 12:27:09;;;;;;;14.10;2.88;;;20.40;99.90;;;;;;5042993;28;20517;-71
2022/09/07 12:29:36;;;;;;;15.75;2.70;;;20.50;99.90;;;;;;5040940;28;20032;-71
2022/09/07 12:32:03;;;;;;;14.07;2.72;;;20.70;99.90;;;;;;5026808;28;20051;-71
2022/09/07 12:34:28;;;;;;;12.00;2.60;;;20.80;99.90;;;;;;5027417;28;20029;-71
2022/09/07 12:36:54;;;;;;;15.32;2.67;;;20.80;99.90;;;;;;5045813;28;20047;-70
2022/09/07 12:39:27;;;;;;;12.13;2.35;;;20.70;99.90;;;;;;5045483;28;20037;-70
2022/09/07 12:42:05;;;;;;;12.65;2.08;;;20.70;99.90;;;;;;5041280;28;20055;-71
2022/09/07 12:44:32;;;;;;;14.00;2.42;;;20.70;99.90;;;;;;5043371;28;20068;-71
2022/09/07 12:47:00;;;;;;;12.82;2.35;;;20.60;99.90;;;;;;5042115;28;20041;-71
2022/09/07 12:49:32;;;;;;;14.95;2.50;;;20.70;99.90;;;;;;5047755;28;20037;-70
2022/09/07 12:52:11;;;;;;;13.70;2.53;;;20.80;99.90;;;;;;5106528;28;20469;-70
2022/09/07 12:54:48;;;;;;;12.68;2.42;;;20.70;99.90;;;;;;5098949;28;20034;-70
2022/09/07 12:57:30;;;;;;;16.60;2.40;;;20.80;99.90;;;;;;5105874;28;20500;-71
2022/09/07 13:00:12;;;;;;;11.48;2.40;;;20.80;99.90;;;;;;5105180;28;20043;-70
2022/09/07 13:02:59;;;;;;;12.00;2.20;;;20.70;99.90;;;;;;5103102;28;20055;-71